West Baraboo, Wisconsin
Current Conditions -  °F | °C
As of 4:15 PM on Thursday 23 Oct 2014 (Local Time) from KDLL Reporting Station
Haze Haze  
Wind Chill: 46°   Ceiling: 1000
Heat Index: 47°   Visibility: 3mi
Dew Point: 45°   Wind: 5mph
Humidity: 91%   Direction: 220°SW
Pressure: 30.03"   Gusts: NA
Location:  43.4869°N, 89.7322°W
Report Text: KDLL 232115Z AUTO 22004KT 3SM BR OVC010 09/07 A3003 RMK AO2 T00860072
Loading
Personal Weather Stations






























Interactive Weather Map
Tropical Storm Tracking
New forecast layout! Learn more

10-Day Weather Forecast

Advertisements
Track Severe Weather on mobile